Private Wetterstation Sandau
Wetterdaten: Montag, 27.08.2012
Datum Zeit Temp. A. Feuchte A. Luftdruck Regen Wind Richtung Richtung Taupunkt Windchill
27.08.2012 00:01 15,1 C 86 % 1014,2 hPa 0,0 l/m 7,6 km/h (2 Bft) W-NW 292 12,8 C 15,1 C
27.08.2012 00:06 15,0 C 86 % 1014,4 hPa 0,0 l/m 11,9 km/h (2 Bft) NW 315 12,7 C 15,0 C
27.08.2012 00:11 14,9 C 86 % 1014,4 hPa 0,0 l/m 9,4 km/h (2 Bft) W-NW 292 12,6 C 14,9 C
27.08.2012 00:16 14,9 C 86 % 1014,5 hPa 0,0 l/m 18,0 km/h (3 Bft) NW 315 12,6 C 14,9 C
27.08.2012 00:21 14,9 C 86 % 1014,6 hPa 0,0 l/m 4,0 km/h (1 Bft) NW 315 12,6 C 14,9 C
27.08.2012 00:26 14,9 C 86 % 1014,8 hPa 0,0 l/m 4,3 km/h (1 Bft) N-NW 337 12,6 C 14,9 C
27.08.2012 00:31 14,9 C 86 % 1014,9 hPa 0,0 l/m 6,5 km/h (2 Bft) W-NW 292 12,6 C 14,9 C
27.08.2012 00:36 14,9 C 86 % 1014,9 hPa 0,0 l/m 6,1 km/h (2 Bft) W-NW 292 12,6 C 14,9 C
27.08.2012 00:41 14,9 C 85 % 1015,0 hPa 0,0 l/m 6,8 km/h (2 Bft) W 270 12,4 C 14,9 C
27.08.2012 00:46 14,9 C 85 % 1015,0 hPa 0,0 l/m 5,8 km/h (2 Bft) NW 315 12,4 C 14,9 C
27.08.2012 00:51 14,9 C 85 % 1015,2 hPa 0,0 l/m 7,2 km/h (2 Bft) NW 315 12,4 C 14,9 C
27.08.2012 00:56 14,8 C 85 % 1015,3 hPa 0,0 l/m 14,8 km/h (3 Bft) W-NW 292 12,3 C 14,8 C
27.08.2012 01:01 14,7 C 85 % 1015,4 hPa 0,0 l/m 14,8 km/h (3 Bft) W 270 12,2 C 14,7 C
27.08.2012 01:06 14,6 C 85 % 1015,4 hPa 0,0 l/m 11,9 km/h (2 Bft) W-NW 292 12,1 C 14,6 C
27.08.2012 01:11 14,6 C 85 % 1015,5 hPa 0,0 l/m 8,3 km/h (2 Bft) W-NW 292 12,1 C 14,6 C
27.08.2012 01:16 14,5 C 85 % 1015,6 hPa 0,0 l/m 6,8 km/h (2 Bft) W 270 12,0 C 14,5 C
27.08.2012 01:21 14,5 C 85 % 1015,7 hPa 0,0 l/m 4,7 km/h (1 Bft) W-NW 292 12,0 C 14,5 C
27.08.2012 01:26 14,4 C 85 % 1015,8 hPa 0,0 l/m 14,8 km/h (3 Bft) NW 315 11,9 C 14,4 C
27.08.2012 01:31 14,4 C 85 % 1016,0 hPa 0,0 l/m 3,6 km/h (1 Bft) W 270 11,9 C 14,4 C
27.08.2012 01:36 14,3 C 85 % 1015,9 hPa 0,0 l/m 4,7 km/h (1 Bft) W-NW 292 11,8 C 14,3 C
27.08.2012 01:41 14,2 C 85 % 1016,0 hPa 0,0 l/m 15,5 km/h (3 Bft) W 270 11,7 C 14,2 C
27.08.2012 01:46 14,2 C 85 % 1015,9 hPa 0,0 l/m 8,3 km/h (2 Bft) N-NW 337 11,7 C 14,2 C
27.08.2012 01:51 14,1 C 85 % 1016,1 hPa 0,0 l/m 3,6 km/h (1 Bft) NW 315 11,6 C 14,1 C
27.08.2012 01:56 14,1 C 84 % 1016,1 hPa 0,0 l/m 8,6 km/h (2 Bft) NW 315 11,4 C 14,1 C
27.08.2012 02:01 14,1 C 84 % 1016,2 hPa 0,0 l/m 3,6 km/h (1 Bft) W-NW 292 11,4 C 14,1 C
27.08.2012 02:06 13,9 C 84 % 1016,0 hPa 0,0 l/m 6,5 km/h (2 Bft) W-NW 292 11,2 C 13,9 C
27.08.2012 02:11 13,9 C 84 % 1016,3 hPa 0,0 l/m 5,4 km/h (1 Bft) NW 315 11,2 C 13,9 C
27.08.2012 02:16 13,8 C 84 % 1016,3 hPa 0,0 l/m 4,3 km/h (1 Bft) W 270 11,1 C 13,8 C
27.08.2012 02:21 13,8 C 84 % 1016,4 hPa 0,0 l/m 4,7 km/h (1 Bft) W 270 11,1 C 13,8 C
27.08.2012 02:26 13,6 C 85 % 1016,4 hPa 0,0 l/m 3,6 km/h (1 Bft) W-NW 292 11,1 C 13,6 C
27.08.2012 02:31 13,6 C 85 % 1016,5 hPa 0,0 l/m 5,8 km/h (2 Bft) W-NW 292 11,1 C 13,6 C
27.08.2012 02:36 13,6 C 85 % 1016,5 hPa 0,0 l/m 5,8 km/h (2 Bft) W 270 11,1 C 13,6 C
27.08.2012 02:41 13,5 C 86 % 1016,6 hPa 0,0 l/m 8,6 km/h (2 Bft) W-SW 247 11,2 C 13,5 C
27.08.2012 02:46 13,5 C 86 % 1016,7 hPa 0,0 l/m 2,9 km/h (1 Bft) W 270 11,2 C 13,5 C
27.08.2012 02:51 13,5 C 87 % 1016,7 hPa 0,0 l/m 2,5 km/h (1 Bft) W-SW 247 11,4 C 13,5 C
27.08.2012 02:56 13,6 C 87 % 1016,8 hPa 0,0 l/m 7,6 km/h (2 Bft) W-SW 247 11,5 C 13,6 C
27.08.2012 03:01 13,6 C 87 % 1016,8 hPa 0,0 l/m 1,8 km/h (1 Bft) W-SW 247 11,5 C 13,6 C
27.08.2012 03:06 13,8 C 87 % 1016,8 hPa 0,0 l/m 7,6 km/h (2 Bft) W 270 11,7 C 13,8 C
27.08.2012 03:11 13,8 C 87 % 1017,0 hPa 0,0 l/m 8,3 km/h (2 Bft) W 270 11,7 C 13,8 C
27.08.2012 03:16 13,9 C 87 % 1017,1 hPa 0,0 l/m 8,3 km/h (2 Bft) W 270 11,8 C 13,9 C
27.08.2012 03:21 13,9 C 87 % 1017,2 hPa 0,0 l/m 4,7 km/h (1 Bft) W-NW 292 11,8 C 13,9 C
27.08.2012 03:26 13,9 C 87 % 1017,2 hPa 0,0 l/m 0,0 km/h (0 Bft) W-NW 292 11,8 C 13,9 C
27.08.2012 03:31 13,9 C 87 % 1017,2 hPa 0,0 l/m 5,0 km/h (1 Bft) W 270 11,8 C 13,9 C
27.08.2012 03:36 14,0 C 87 % 1017,2 hPa 0,0 l/m 7,2 km/h (2 Bft) W-NW 292 11,9 C 14,0 C
27.08.2012 03:41 14,0 C 87 % 1017,1 hPa 0,0 l/m 6,1 km/h (2 Bft) W 270 11,9 C 14,0 C
27.08.2012 03:46 14,1 C 87 % 1017,3 hPa 0,0 l/m 6,1 km/h (2 Bft) W-NW 292 12,0 C 14,1 C
27.08.2012 03:51 14,1 C 87 % 1017,3 hPa 0,0 l/m 11,5 km/h (2 Bft) W-SW 247 12,0 C 14,1 C
27.08.2012 03:56 14,1 C 87 % 1017,3 hPa 0,0 l/m 4,0 km/h (1 Bft) W-NW 292 12,0 C 14,1 C
27.08.2012 04:01 14,1 C 87 % 1017,4 hPa 0,0 l/m 5,4 km/h (1 Bft) W 270 12,0 C 14,1 C
27.08.2012 04:06 14,1 C 87 % 1017,4 hPa 0,0 l/m 9,0 km/h (2 Bft) W 270 12,0 C 14,1 C
27.08.2012 04:11 13,9 C 88 % 1017,4 hPa 0,0 l/m 3,2 km/h (1 Bft) W 270 11,9 C 13,9 C
27.08.2012 04:16 13,9 C 88 % 1017,5 hPa 0,0 l/m 4,7 km/h (1 Bft) W-NW 292 11,9 C 13,9 C
27.08.2012 04:21 13,9 C 88 % 1017,5 hPa 0,0 l/m 6,5 km/h (2 Bft) W 270 11,9 C 13,9 C
27.08.2012 04:26 13,8 C 88 % 1017,4 hPa 0,0 l/m 7,9 km/h (2 Bft) NW 315 11,8 C 13,8 C
27.08.2012 04:31 13,6 C 88 % 1017,5 hPa 0,0 l/m 6,1 km/h (2 Bft) W-NW 292 11,6 C 13,6 C
27.08.2012 04:36 13,6 C 88 % 1017,6 hPa 0,0 l/m 5,0 km/h (1 Bft) NW 315 11,6 C 13,6 C
27.08.2012 04:41 13,5 C 88 % 1017,8 hPa 0,0 l/m 7,9 km/h (2 Bft) W 270 11,6 C 13,5 C
27.08.2012 04:46 13,4 C 88 % 1017,9 hPa 0,0 l/m 2,5 km/h (1 Bft) W-NW 292 11,5 C 13,4 C
27.08.2012 04:51 13,3 C 89 % 1017,8 hPa 0,0 l/m 7,6 km/h (2 Bft) W-NW 292 11,5 C 13,3 C
27.08.2012 04:56 13,3 C 89 % 1017,9 hPa 0,0 l/m 5,8 km/h (2 Bft) W 270 11,5 C 13,3 C
27.08.2012 05:01 13,3 C 89 % 1018,0 hPa 0,0 l/m 7,2 km/h (2 Bft) W-NW 292 11,5 C 13,3 C
27.08.2012 05:06 13,3 C 89 % 1018,1 hPa 0,0 l/m 6,1 km/h (2 Bft) W-NW 292 11,5 C 13,3 C
27.08.2012 05:11 13,3 C 89 % 1018,2 hPa 0,0 l/m 6,5 km/h (2 Bft) W 270 11,5 C 13,3 C
27.08.2012 05:16 13,3 C 89 % 1018,2 hPa 0,0 l/m 10,4 km/h (2 Bft) W-SW 247 11,5 C 13,3 C
27.08.2012 05:21 13,4 C 89 % 1018,2 hPa 0,0 l/m 1,8 km/h (1 Bft) W 270 11,6 C 13,4 C
27.08.2012 05:26 13,3 C 89 % 1018,2 hPa 0,0 l/m 5,8 km/h (2 Bft) W-NW 292 11,5 C 13,3 C
27.08.2012 05:31 13,3 C 89 % 1018,3 hPa 0,0 l/m 6,5 km/h (2 Bft) W-SW 247 11,5 C 13,3 C
27.08.2012 05:36 13,3 C 89 % 1018,4 hPa 0,0 l/m 7,2 km/h (2 Bft) W-NW 292 11,5 C 13,3 C
27.08.2012 05:41 13,3 C 89 % 1018,4 hPa 0,0 l/m 8,3 km/h (2 Bft) W-NW 292 11,5 C 13,3 C
27.08.2012 05:46 13,3 C 89 % 1018,3 hPa 0,0 l/m 2,5 km/h (1 Bft) W 270 11,5 C 13,3 C
27.08.2012 05:51 13,3 C 89 % 1018,5 hPa 0,0 l/m 8,3 km/h (2 Bft) W-SW 247 11,5 C 13,3 C
27.08.2012 05:56 13,2 C 89 % 1018,6 hPa 0,0 l/m 7,6 km/h (2 Bft) W 270 11,4 C 13,2 C
27.08.2012 06:01 13,2 C 89 % 1018,5 hPa 0,0 l/m 2,5 km/h (1 Bft) W-SW 247 11,4 C 13,2 C
27.08.2012 06:06 13,2 C 89 % 1018,6 hPa 0,0 l/m 3,6 km/h (1 Bft) W 270 11,4 C 13,2 C
27.08.2012 06:11 13,2 C 89 % 1018,6 hPa 0,0 l/m 6,1 km/h (2 Bft) W-SW 247 11,4 C 13,2 C
27.08.2012 06:16 13,1 C 89 % 1018,7 hPa 0,0 l/m 9,7 km/h (2 Bft) W-SW 247 11,3 C 13,1 C
27.08.2012 06:21 13,1 C 89 % 1018,7 hPa 0,0 l/m 4,0 km/h (1 Bft) W 270 11,3 C 13,1 C
27.08.2012 06:26 12,9 C 89 % 1018,9 hPa 0,0 l/m 3,6 km/h (1 Bft) W 270 11,1 C 12,9 C
27.08.2012 06:31 12,9 C 89 % 1019,1 hPa 0,0 l/m 5,0 km/h (1 Bft) W-NW 292 11,1 C 12,9 C
27.08.2012 06:36 12,9 C 89 % 1019,0 hPa 0,0 l/m 5,8 km/h (2 Bft) W-NW 292 11,1 C 12,9 C
27.08.2012 06:41 13,0 C 89 % 1019,1 hPa 0,0 l/m 4,0 km/h (1 Bft) W 270 11,2 C 13,0 C
27.08.2012 06:46 13,1 C 89 % 1019,2 hPa 0,0 l/m 2,5 km/h (1 Bft) W-SW 247 11,3 C 13,1 C
27.08.2012 06:51 13,2 C 89 % 1019,2 hPa 0,0 l/m 4,3 km/h (1 Bft) W-NW 292 11,4 C 13,2 C
27.08.2012 06:56 13,3 C 89 % 1019,2 hPa 0,0 l/m 3,6 km/h (1 Bft) W-NW 292 11,5 C 13,3 C
27.08.2012 07:01 13,5 C 89 % 1019,2 hPa 0,0 l/m 5,8 km/h (2 Bft) W 270 11,7 C 13,5 C
27.08.2012 07:06 13,7 C 88 % 1019,4 hPa 0,0 l/m 13,3 km/h (3 Bft) W-SW 247 11,7 C 13,7 C
27.08.2012 07:11 13,9 C 88 % 1019,5 hPa 0,0 l/m 1,4 km/h (1 Bft) W 270 11,9 C 13,9 C
27.08.2012 07:16 14,2 C 87 % 1019,6 hPa 0,0 l/m 10,1 km/h (2 Bft) W-NW 292 12,1 C 14,2 C
27.08.2012 07:21 14,3 C 86 % 1019,6 hPa 0,0 l/m 5,0 km/h (1 Bft) W 270 12,0 C 14,3 C
27.08.2012 07:26 14,4 C 86 % 1019,6 hPa 0,0 l/m 4,3 km/h (1 Bft) W-SW 247 12,1 C 14,4 C
27.08.2012 07:31 14,4 C 85 % 1019,6 hPa 0,0 l/m 10,8 km/h (2 Bft) W-SW 247 11,9 C 14,4 C
27.08.2012 07:36 14,5 C 85 % 1019,6 hPa 0,0 l/m 3,6 km/h (1 Bft) W-NW 292 12,0 C 14,5 C
27.08.2012 07:41 14,5 C 84 % 1019,6 hPa 0,0 l/m 5,8 km/h (2 Bft) W-SW 247 11,8 C 14,5 C
27.08.2012 07:46 14,4 C 84 % 1019,7 hPa 0,0 l/m 5,0 km/h (1 Bft) W-NW 292 11,7 C 14,4 C
27.08.2012 07:51 14,5 C 84 % 1019,8 hPa 0,0 l/m 12,2 km/h (2 Bft) W-SW 247 11,8 C 14,5 C
27.08.2012 07:56 14,5 C 84 % 1019,9 hPa 0,0 l/m 8,3 km/h (2 Bft) NW 315 11,8 C 14,5 C
27.08.2012 08:01 14,7 C 83 % 1019,9 hPa 0,0 l/m 9,7 km/h (2 Bft) W 270 11,8 C 14,7 C
27.08.2012 08:06 14,7 C 83 % 1020,0 hPa 0,0 l/m 7,9 km/h (2 Bft) NW 315 11,8 C 14,7 C
27.08.2012 08:11 14,8 C 83 % 1020,1 hPa 0,0 l/m 11,9 km/h (2 Bft) NW 315 11,9 C 14,8 C
27.08.2012 08:16 14,9 C 83 % 1020,1 hPa 0,0 l/m 5,8 km/h (2 Bft) W 270 12,0 C 14,9 C
27.08.2012 08:21 14,9 C 82 % 1020,3 hPa 0,0 l/m 10,4 km/h (2 Bft) W 270 11,9 C 14,9 C
27.08.2012 08:26 14,9 C 82 % 1020,3 hPa 0,0 l/m 5,0 km/h (1 Bft) W-NW 292 11,9 C 14,9 C
27.08.2012 08:31 15,0 C 82 % 1020,3 hPa 0,0 l/m 10,1 km/h (2 Bft) W-NW 292 12,0 C 15,0 C
27.08.2012 08:36 15,2 C 81 % 1020,3 hPa 0,0 l/m 12,6 km/h (3 Bft) W 270 12,0 C 15,2 C
27.08.2012 08:41 15,2 C 81 % 1020,3 hPa 0,0 l/m 7,9 km/h (2 Bft) W 270 12,0 C 15,2 C
27.08.2012 08:46 15,1 C 81 % 1020,3 hPa 0,0 l/m 4,0 km/h (1 Bft) W 270 11,9 C 15,1 C
27.08.2012 08:51 15,2 C 81 % 1020,4 hPa 0,0 l/m 4,3 km/h (1 Bft) W-SW 247 12,0 C 15,2 C
27.08.2012 08:56 15,4 C 81 % 1020,5 hPa 0,0 l/m 8,3 km/h (2 Bft) W-SW 247 12,2 C 15,4 C
27.08.2012 09:01 15,6 C 80 % 1020,7 hPa 0,0 l/m 3,2 km/h (1 Bft) W-NW 292 12,2 C 15,6 C
27.08.2012 09:06 15,8 C 79 % 1020,7 hPa 0,0 l/m 14,4 km/h (3 Bft) W-SW 247 12,2 C 15,8 C
27.08.2012 09:11 15,9 C 78 % 1020,6 hPa 0,0 l/m 9,0 km/h (2 Bft) W 270 12,1 C 15,9 C
27.08.2012 09:16 16,1 C 78 % 1020,7 hPa 0,0 l/m 9,7 km/h (2 Bft) W 270 12,3 C 16,1 C
27.08.2012 09:21 16,2 C 77 % 1020,8 hPa 0,0 l/m 2,5 km/h (1 Bft) W-SW 247 12,2 C 16,2 C
27.08.2012 09:26 16,3 C 76 % 1020,9 hPa 0,0 l/m 6,5 km/h (2 Bft) W-SW 247 12,1 C 16,3 C
27.08.2012 09:31 16,5 C 75 % 1020,8 hPa 0,0 l/m 5,8 km/h (2 Bft) W 270 12,1 C 16,5 C
27.08.2012 09:36 16,7 C 74 % 1020,9 hPa 0,0 l/m 15,8 km/h (3 Bft) W-SW 247 12,0 C 16,7 C
27.08.2012 09:41 16,9 C 73 % 1020,7 hPa 0,0 l/m 6,8 km/h (2 Bft) W 270 12,0 C 16,9 C
27.08.2012 09:46 17,0 C 72 % 1020,8 hPa 0,0 l/m 4,0 km/h (1 Bft) W-NW 292 11,9 C 17,0 C
27.08.2012 09:51 17,2 C 70 % 1020,7 hPa 0,0 l/m 6,5 km/h (2 Bft) W-SW 247 11,7 C 17,2 C
27.08.2012 09:56 17,3 C 69 % 1020,8 hPa 0,0 l/m 13,0 km/h (3 Bft) W-SW 247 11,6 C 17,3 C
27.08.2012 10:01 17,4 C 69 % 1020,9 hPa 0,0 l/m 7,2 km/h (2 Bft) N 360 11,7 C 17,4 C
27.08.2012 10:06 17,6 C 68 % 1020,8 hPa 0,0 l/m 13,7 km/h (3 Bft) W-NW 292 11,6 C 17,6 C
27.08.2012 10:11 17,8 C 66 % 1020,9 hPa 0,0 l/m 9,0 km/h (2 Bft) W-NW 292 11,4 C 17,8 C
27.08.2012 10:16 17,9 C 65 % 1020,9 hPa 0,0 l/m 2,5 km/h (1 Bft) NW 315 11,2 C 17,9 C
27.08.2012 10:21 17,9 C 63 % 1020,9 hPa 0,0 l/m 11,2 km/h (2 Bft) W 270 10,8 C 17,9 C
27.08.2012 10:26 18,1 C 63 % 1021,0 hPa 0,0 l/m 9,7 km/h (2 Bft) N-NW 337 10,9 C 18,1 C
27.08.2012 10:31 18,1 C 62 % 1021,1 hPa 0,0 l/m 0,0 km/h (0 Bft) N-NW 337 10,7 C 18,1 C
27.08.2012 10:36 18,2 C 60 % 1021,1 hPa 0,0 l/m 4,0 km/h (1 Bft) O-NO 67 10,3 C 18,2 C
27.08.2012 10:41 18,3 C 59 % 1021,0 hPa 0,0 l/m 6,1 km/h (2 Bft) O-NO 67 10,1 C 18,3 C
27.08.2012 10:46 18,4 C 59 % 1021,0 hPa 0,0 l/m 22,0 km/h (4 Bft) NW 315 10,2 C 18,4 C
27.08.2012 10:51 18,5 C 58 % 1021,1 hPa 0,0 l/m 5,8 km/h (2 Bft) W-NW 292 10,1 C 18,5 C
27.08.2012 10:56 18,8 C 58 % 1021,2 hPa 0,0 l/m 8,6 km/h (2 Bft) W-NW 292 10,4 C 18,8 C
27.08.2012 11:01 18,9 C 56 % 1021,2 hPa 0,0 l/m 12,2 km/h (2 Bft) N-NW 337 9,9 C 18,9 C
27.08.2012 11:06 19,2 C 56 % 1021,1 hPa 0,0 l/m 11,2 km/h (2 Bft) N-NO 22 10,2 C 19,2 C
27.08.2012 11:11 19,3 C 55 % 1021,1 hPa 0,0 l/m 6,8 km/h (2 Bft) NW 315 10,0 C 19,3 C
27.08.2012 11:16 19,3 C 55 % 1021,2 hPa 0,0 l/m 6,8 km/h (2 Bft) W 270 10,0 C 19,3 C
27.08.2012 11:21 19,3 C 54 % 1021,2 hPa 0,0 l/m 10,4 km/h (2 Bft) W-NW 292 9,8 C 19,3 C
27.08.2012 11:26 19,2 C 54 % 1021,2 hPa 0,0 l/m 9,4 km/h (2 Bft) NW 315 9,7 C 19,2 C
27.08.2012 11:31 19,1 C 54 % 1021,3 hPa 0,0 l/m 7,9 km/h (2 Bft) NW 315 9,6 C 19,1 C
27.08.2012 11:36 18,8 C 53 % 1021,3 hPa 0,0 l/m 15,5 km/h (3 Bft) N-NO 22 9,0 C 18,8 C
27.08.2012 11:41 18,8 C 54 % 1021,3 hPa 0,0 l/m 15,1 km/h (3 Bft) N-NW 337 9,3 C 18,8 C
27.08.2012 11:46 19,2 C 54 % 1021,4 hPa 0,0 l/m 9,7 km/h (2 Bft) W-NW 292 9,7 C 19,2 C
27.08.2012 11:51 19,1 C 55 % 1021,5 hPa 0,0 l/m 4,7 km/h (1 Bft) W 270 9,8 C 19,1 C
27.08.2012 11:56 19,2 C 55 % 1021,5 hPa 0,0 l/m 6,5 km/h (2 Bft) W-NW 292 9,9 C 19,2 C
27.08.2012 12:01 19,5 C 54 % 1021,5 hPa 0,0 l/m 13,7 km/h (3 Bft) N 360 9,9 C 19,5 C
27.08.2012 12:06 19,9 C 52 % 1021,4 hPa 0,0 l/m 4,3 km/h (1 Bft) N 360 9,7 C 19,9 C
27.08.2012 12:11 20,1 C 51 % 1021,4 hPa 0,0 l/m 25,2 km/h (4 Bft) NW 315 9,6 C 20,1 C
27.08.2012 12:16 19,9 C 52 % 1021,4 hPa 0,0 l/m 21,6 km/h (4 Bft) NW 315 9,7 C 19,9 C
27.08.2012 12:21 19,4 C 54 % 1021,5 hPa 0,0 l/m 9,0 km/h (2 Bft) N-NW 337 9,8 C 19,4 C
27.08.2012 12:26 19,3 C 54 % 1021,4 hPa 0,0 l/m 6,1 km/h (2 Bft) W 270 9,8 C 19,3 C
27.08.2012 12:31 19,7 C 54 % 1021,4 hPa 0,0 l/m 9,0 km/h (2 Bft) W-SW 247 10,1 C 19,7 C
27.08.2012 12:36 19,9 C 52 % 1021,5 hPa 0,0 l/m 17,3 km/h (3 Bft) W-NW 292 9,7 C 19,9 C
27.08.2012 12:41 19,6 C 52 % 1021,6 hPa 0,0 l/m 20,9 km/h (4 Bft) W 270 9,5 C 19,6 C
27.08.2012 12:46 19,8 C 52 % 1021,5 hPa 0,0 l/m 4,7 km/h (1 Bft) W-NW 292 9,7 C 19,8 C
27.08.2012 12:51 19,9 C 51 % 1021,4 hPa 0,0 l/m 6,1 km/h (2 Bft) W 270 9,5 C 19,9 C
27.08.2012 12:56 20,2 C 51 % 1021,4 hPa 0,0 l/m 14,4 km/h (3 Bft) NW 315 9,7 C 20,2 C
27.08.2012 13:01 20,2 C 50 % 1021,4 hPa 0,0 l/m 13,3 km/h (3 Bft) NW 315 9,4 C 20,2 C
27.08.2012 13:06 20,2 C 50 % 1021,3 hPa 0,0 l/m 15,8 km/h (3 Bft) NW 315 9,4 C 20,2 C
27.08.2012 13:11 20,4 C 50 % 1021,4 hPa 0,0 l/m 6,1 km/h (2 Bft) NW 315 9,6 C 20,4 C
27.08.2012 13:16 20,6 C 49 % 1021,4 hPa 0,0 l/m 5,8 km/h (2 Bft) N 360 9,5 C 20,6 C
27.08.2012 13:21 20,9 C 48 % 1021,3 hPa 0,0 l/m 11,9 km/h (2 Bft) NW 315 9,5 C 20,9 C
27.08.2012 13:26 21,0 C 47 % 1021,7 hPa 0,0 l/m 11,9 km/h (2 Bft) N-NW 337 9,3 C 21,0 C
27.08.2012 13:31 20,9 C 47 % 1021,5 hPa 0,0 l/m 12,2 km/h (2 Bft) NW 315 9,2 C 20,9 C
27.08.2012 13:36 20,6 C 48 % 1021,6 hPa 0,0 l/m 6,5 km/h (2 Bft) NW 315 9,2 C 20,6 C
27.08.2012 13:41 20,4 C 49 % 1021,5 hPa 0,0 l/m 7,2 km/h (2 Bft) W 270 9,3 C 20,4 C
27.08.2012 13:46 20,3 C 49 % 1021,5 hPa 0,0 l/m 5,4 km/h (1 Bft) W-NW 292 9,2 C 20,3 C
27.08.2012 13:51 20,1 C 49 % 1021,4 hPa 0,0 l/m 6,1 km/h (2 Bft) NO 45 9,0 C 20,1 C
27.08.2012 13:56 19,9 C 49 % 1021,5 hPa 0,0 l/m 4,7 km/h (1 Bft) NW 315 8,9 C 19,9 C
27.08.2012 14:01 20,1 C 50 % 1021,4 hPa 0,0 l/m 6,8 km/h (2 Bft) W-NW 292 9,3 C 20,1 C
27.08.2012 14:06 20,6 C 48 % 1021,4 hPa 0,0 l/m 2,5 km/h (1 Bft) NW 315 9,2 C 20,6 C
27.08.2012 14:11 21,0 C 45 % 1021,4 hPa 0,0 l/m 10,4 km/h (2 Bft) NW 315 8,6 C 21,0 C
27.08.2012 14:16 21,1 C 45 % 1021,3 hPa 0,0 l/m 6,5 km/h (2 Bft) NO 45 8,7 C 21,1 C
27.08.2012 14:21 21,1 C 47 % 1021,3 hPa 0,0 l/m 25,2 km/h (4 Bft) NW 315 9,3 C 21,1 C
27.08.2012 14:26 21,4 C 46 % 1021,2 hPa 0,0 l/m 6,5 km/h (2 Bft) N-NO 22 9,3 C 21,4 C
27.08.2012 14:31 21,3 C 45 % 1021,3 hPa 0,0 l/m 7,6 km/h (2 Bft) N 360 8,9 C 21,3 C
27.08.2012 14:36 20,9 C 44 % 1021,3 hPa 0,0 l/m 4,7 km/h (1 Bft) N-NW 337 8,2 C 20,9 C
27.08.2012 14:41 20,6 C 46 % 1021,4 hPa 0,0 l/m 5,8 km/h (2 Bft) W-NW 292 8,6 C 20,6 C
27.08.2012 14:46 20,6 C 46 % 1021,3 hPa 0,0 l/m 5,8 km/h (2 Bft) W-NW 292 8,6 C 20,6 C
27.08.2012 14:51 21,0 C 46 % 1021,2 hPa 0,0 l/m 4,0 km/h (1 Bft) NW 315 8,9 C 21,0 C
27.08.2012 14:56 21,4 C 44 % 1021,2 hPa 0,0 l/m 7,6 km/h (2 Bft) W-NW 292 8,6 C 21,4 C
27.08.2012 15:01 21,6 C 44 % 1021,1 hPa 0,0 l/m 10,8 km/h (2 Bft) NW 315 8,8 C 21,6 C
27.08.2012 15:06 21,8 C 42 % 1021,2 hPa 0,0 l/m 5,0 km/h (1 Bft) W-SW 247 8,3 C 21,8 C
27.08.2012 15:11 21,9 C 43 % 1021,3 hPa 0,0 l/m 14,0 km/h (3 Bft) W-NW 292 8,7 C 21,9 C
27.08.2012 15:16 22,2 C 42 % 1021,2 hPa 0,0 l/m 15,1 km/h (3 Bft) NW 315 8,7 C 22,2 C
27.08.2012 15:21 22,4 C 42 % 1021,1 hPa 0,0 l/m 6,1 km/h (2 Bft) N-NO 22 8,9 C 22,4 C
27.08.2012 15:26 22,5 C 42 % 1021,1 hPa 0,0 l/m 4,7 km/h (1 Bft) W-SW 247 8,9 C 22,5 C
27.08.2012 15:31 22,7 C 41 % 1021,2 hPa 0,0 l/m 15,1 km/h (3 Bft) W-NW 292 8,8 C 22,7 C
27.08.2012 15:36 22,9 C 41 % 1021,2 hPa 0,0 l/m 15,8 km/h (3 Bft) NW 315 8,9 C 22,9 C
27.08.2012 15:41 22,9 C 41 % 1020,9 hPa 0,0 l/m 3,2 km/h (1 Bft) W-NW 292 8,9 C 22,9 C
27.08.2012 15:46 22,9 C 40 % 1021,0 hPa 0,0 l/m 5,8 km/h (2 Bft) W-SW 247 8,6 C 22,9 C
27.08.2012 15:51 22,9 C 41 % 1020,9 hPa 0,0 l/m 10,4 km/h (2 Bft) W 270 8,9 C 22,9 C
27.08.2012 15:56 23,1 C 41 % 1021,0 hPa 0,0 l/m 2,2 km/h (1 Bft) W 270 9,1 C 23,1 C
27.08.2012 16:01 23,1 C 40 % 1021,0 hPa 0,0 l/m 9,0 km/h (2 Bft) W-SW 247 8,8 C 23,1 C
27.08.2012 16:06 23,0 C 39 % 1020,9 hPa 0,0 l/m 11,2 km/h (2 Bft) NW 315 8,3 C 23,0 C
27.08.2012 16:11 22,9 C 40 % 1020,9 hPa 0,0 l/m 5,4 km/h (1 Bft) W-NW 292 8,6 C 22,9 C
27.08.2012 16:16 22,9 C 41 % 1020,9 hPa 0,0 l/m 5,4 km/h (1 Bft) NW 315 8,9 C 22,9 C
27.08.2012 16:21 22,8 C 41 % 1021,0 hPa 0,0 l/m 7,9 km/h (2 Bft) NW 315 8,9 C 22,8 C
27.08.2012 16:26 22,7 C 41 % 1021,1 hPa 0,0 l/m 3,2 km/h (1 Bft) W-NW 292 8,8 C 22,7 C
27.08.2012 16:31 22,9 C 41 % 1021,0 hPa 0,0 l/m 3,6 km/h (1 Bft) W 270 8,9 C 22,9 C
27.08.2012 16:36 22,8 C 40 % 1021,0 hPa 0,0 l/m 4,0 km/h (1 Bft) N-NW 337 8,5 C 22,8 C
27.08.2012 16:41 22,8 C 41 % 1021,0 hPa 0,0 l/m 6,1 km/h (2 Bft) N-NO 22 8,9 C 22,8 C
27.08.2012 16:46 22,9 C 41 % 1020,9 hPa 0,0 l/m 10,4 km/h (2 Bft) W-NW 292 8,9 C 22,9 C
27.08.2012 16:51 23,0 C 40 % 1020,8 hPa 0,0 l/m 4,7 km/h (1 Bft) N-NW 337 8,7 C 23,0 C
27.08.2012 16:56 23,2 C 40 % 1021,0 hPa 0,0 l/m 1,8 km/h (1 Bft) W-NW 292 8,8 C 23,2 C
27.08.2012 17:01 23,3 C 40 % 1021,0 hPa 0,0 l/m 8,3 km/h (2 Bft) W-SW 247 8,9 C 23,3 C
27.08.2012 17:06 23,3 C 40 % 1021,0 hPa 0,0 l/m 10,1 km/h (2 Bft) W-SW 247 8,9 C 23,3 C
27.08.2012 17:11 23,3 C 39 % 1020,8 hPa 0,0 l/m 6,1 km/h (2 Bft) NW 315 8,6 C 23,3 C
27.08.2012 17:16 23,2 C 40 % 1020,9 hPa 0,0 l/m 12,2 km/h (2 Bft) W 270 8,8 C 23,2 C
27.08.2012 17:21 23,0 C 40 % 1020,8 hPa 0,0 l/m 5,4 km/h (1 Bft) W-SW 247 8,7 C 23,0 C
27.08.2012 17:26 23,1 C 40 % 1020,6 hPa 0,0 l/m 5,8 km/h (2 Bft) W-SW 247 8,8 C 23,1 C
27.08.2012 17:31 23,1 C 40 % 1020,5 hPa 0,0 l/m 1,4 km/h (1 Bft) W 270 8,8 C 23,1 C
27.08.2012 17:36 23,0 C 40 % 1020,4 hPa 0,0 l/m 22,3 km/h (4 Bft) W-SW 247 8,7 C 23,0 C
27.08.2012 17:41 22,9 C 40 % 1020,4 hPa 0,0 l/m 1,8 km/h (1 Bft) W-SW 247 8,6 C 22,9 C
27.08.2012 17:46 22,8 C 40 % 1020,5 hPa 0,0 l/m 2,9 km/h (1 Bft) W 270 8,5 C 22,8 C
27.08.2012 17:51 22,8 C 41 % 1020,6 hPa 0,0 l/m 5,8 km/h (2 Bft) S-SW 202 8,9 C 22,8 C
27.08.2012 17:56 22,8 C 40 % 1020,6 hPa 0,0 l/m 7,2 km/h (2 Bft) NW 315 8,5 C 22,8 C
27.08.2012 18:01 22,7 C 40 % 1020,6 hPa 0,0 l/m 10,8 km/h (2 Bft) W-SW 247 8,4 C 22,7 C
27.08.2012 18:06 22,6 C 41 % 1020,6 hPa 0,0 l/m 7,6 km/h (2 Bft) W-NW 292 8,7 C 22,6 C
27.08.2012 18:11 22,5 C 42 % 1020,6 hPa 0,0 l/m 4,0 km/h (1 Bft) W 270 8,9 C 22,5 C
27.08.2012 18:16 22,5 C 41 % 1020,6 hPa 0,0 l/m 6,5 km/h (2 Bft) W-SW 247 8,6 C 22,5 C
27.08.2012 18:21 22,4 C 41 % 1020,7 hPa 0,0 l/m 2,2 km/h (1 Bft) NW 315 8,5 C 22,4 C
27.08.2012 18:26 22,3 C 41 % 1020,7 hPa 0,0 l/m 9,0 km/h (2 Bft) W 270 8,4 C 22,3 C
27.08.2012 18:31 22,1 C 41 % 1020,7 hPa 0,0 l/m 4,0 km/h (1 Bft) W 270 8,2 C 22,1 C
27.08.2012 18:36 22,1 C 42 % 1020,6 hPa 0,0 l/m 3,6 km/h (1 Bft) W-SW 247 8,6 C 22,1 C
27.08.2012 18:41 21,9 C 42 % 1020,5 hPa 0,0 l/m 4,0 km/h (1 Bft) W-SW 247 8,4 C 21,9 C
27.08.2012 18:46 21,8 C 42 % 1020,5 hPa 0,0 l/m 8,3 km/h (2 Bft) W-SW 247 8,3 C 21,8 C
27.08.2012 18:51 21,6 C 43 % 1020,6 hPa 0,0 l/m 3,6 km/h (1 Bft) W-NW 292 8,5 C 21,6 C
27.08.2012 18:56 21,4 C 43 % 1020,6 hPa 0,0 l/m 3,2 km/h (1 Bft) W-NW 292 8,3 C 21,4 C
27.08.2012 19:01 21,3 C 44 % 1020,5 hPa 0,0 l/m 0,0 km/h (0 Bft) W-SW 247 8,5 C 21,3 C
27.08.2012 19:06 21,3 C 44 % 1020,6 hPa 0,0 l/m 0,0 km/h (0 Bft) W-SW 247 8,5 C 21,3 C
27.08.2012 19:11 21,1 C 45 % 1020,6 hPa 0,0 l/m 1,8 km/h (1 Bft) W-SW 247 8,7 C 21,1 C
27.08.2012 19:16 21,1 C 45 % 1020,6 hPa 0,0 l/m 0,0 km/h (0 Bft) W-SW 247 8,7 C 21,1 C
27.08.2012 19:21 21,0 C 46 % 1020,7 hPa 0,0 l/m 2,2 km/h (1 Bft) W-SW 247 8,9 C 21,0 C
27.08.2012 19:26 20,9 C 46 % 1020,7 hPa 0,0 l/m 2,5 km/h (1 Bft) W-SW 247 8,8 C 20,9 C
27.08.2012 19:31 20,8 C 46 % 1020,6 hPa 0,0 l/m 1,8 km/h (1 Bft) W-SW 247 8,8 C 20,8 C
27.08.2012 19:36 20,7 C 47 % 1020,7 hPa 0,0 l/m 0,0 km/h (0 Bft) W-SW 247 9,0 C 20,7 C
27.08.2012 19:41 20,5 C 47 % 1020,6 hPa 0,0 l/m 1,1 km/h (1 Bft) W-SW 247 8,8 C 20,5 C
27.08.2012 19:46 20,3 C 48 % 1020,6 hPa 0,0 l/m 0,0 km/h (0 Bft) W-SW 247 8,9 C 20,3 C
27.08.2012 19:51 20,0 C 49 % 1020,5 hPa 0,0 l/m 0,0 km/h (0 Bft) W-SW 247 9,0 C 20,0 C
27.08.2012 19:56 19,8 C 49 % 1020,5 hPa 0,0 l/m 0,0 km/h (0 Bft) W-SW 247 8,8 C 19,8 C
27.08.2012 20:01 19,6 C 50 % 1020,4 hPa 0,0 l/m 0,0 km/h (0 Bft) W-SW 247 8,9 C 19,6 C
27.08.2012 20:06 19,3 C 51 % 1020,5 hPa 0,0 l/m 0,0 km/h (0 Bft) W-SW 247 8,9 C 19,3 C
27.08.2012 20:11 18,9 C 52 % 1020,6 hPa 0,0 l/m 0,0 km/h (0 Bft) W-SW 247 8,8 C 18,9 C
27.08.2012 20:16 18,7 C 53 % 1020,6 hPa 0,0 l/m 0,0 km/h (0 Bft) W-SW 247 8,9 C 18,7 C
27.08.2012 20:21 18,4 C 54 % 1020,6 hPa 0,0 l/m 0,0 km/h (0 Bft) W-SW 247 8,9 C 18,4 C
27.08.2012 20:26 18,1 C 54 % 1020,7 hPa 0,0 l/m 0,0 km/h (0 Bft) W-SW 247 8,6 C 18,1 C
27.08.2012 20:31 17,8 C 55 % 1020,7 hPa 0,0 l/m 0,0 km/h (0 Bft) W-SW 247 8,6 C 17,8 C
27.08.2012 20:36 17,5 C 56 % 1020,7 hPa 0,0 l/m 0,0 km/h (0 Bft) W-SW 247 8,6 C 17,5 C
27.08.2012 20:41 17,3 C 56 % 1020,7 hPa 0,0 l/m 0,0 km/h (0 Bft) W-SW 247 8,4 C 17,3 C
27.08.2012 20:46 17,0 C 57 % 1020,8 hPa 0,0 l/m 0,0 km/h (0 Bft) W-SW 247 8,4 C 17,0 C
27.08.2012 20:51 16,8 C 58 % 1020,7 hPa 0,0 l/m 0,0 km/h (0 Bft) W-SW 247 8,5 C 16,8 C
27.08.2012 20:56 16,5 C 59 % 1020,6 hPa 0,0 l/m 0,0 km/h (0 Bft) W-SW 247 8,5 C 16,5 C
27.08.2012 21:01 16,4 C 60 % 1020,6 hPa 0,0 l/m 0,0 km/h (0 Bft) W-SW 247 8,6 C 16,4 C
27.08.2012 21:06 16,2 C 61 % 1020,7 hPa 0,0 l/m 0,0 km/h (0 Bft) W-SW 247 8,7 C 16,2 C
27.08.2012 21:11 16,1 C 61 % 1020,7 hPa 0,0 l/m 0,0 km/h (0 Bft) W-SW 247 8,6 C 16,1 C
27.08.2012 21:16 15,9 C 61 % 1020,9 hPa 0,0 l/m 0,0 km/h (0 Bft) W-SW 247 8,4 C 15,9 C
27.08.2012 21:21 15,8 C 62 % 1020,7 hPa 0,0 l/m 0,0 km/h (0 Bft) W-SW 247 8,5 C 15,8 C
27.08.2012 21:26 15,6 C 62 % 1020,7 hPa 0,0 l/m 2,5 km/h (1 Bft) W-SW 247 8,3 C 15,6 C
27.08.2012 21:31 15,4 C 62 % 1020,7 hPa 0,0 l/m 2,2 km/h (1 Bft) SO 135 8,2 C 15,4 C
27.08.2012 21:36 15,3 C 63 % 1020,9 hPa 0,0 l/m 2,5 km/h (1 Bft) SO 135 8,3 C 15,3 C
27.08.2012 21:41 15,1 C 64 % 1020,7 hPa 0,0 l/m 1,8 km/h (1 Bft) SO 135 8,3 C 15,1 C
27.08.2012 21:46 14,9 C 64 % 1020,7 hPa 0,0 l/m 0,0 km/h (0 Bft) SO 135 8,2 C 14,9 C
27.08.2012 21:51 14,9 C 64 % 1020,8 hPa 0,0 l/m 0,0 km/h (0 Bft) SO 135 8,2 C 14,9 C
27.08.2012 21:56 14,9 C 65 % 1020,7 hPa 0,0 l/m 0,0 km/h (0 Bft) SO 135 8,4 C 14,9 C
27.08.2012 22:01 14,9 C 64 % 1020,7 hPa 0,0 l/m 0,0 km/h (0 Bft) SO 135 8,2 C 14,9 C
27.08.2012 22:06 14,8 C 65 % 1020,8 hPa 0,0 l/m 2,5 km/h (1 Bft) SO 135 8,3 C 14,8 C
27.08.2012 22:11 14,7 C 65 % 1020,9 hPa 0,0 l/m 0,0 km/h (0 Bft) SO 135 8,2 C 14,7 C
27.08.2012 22:16 14,6 C 66 % 1020,8 hPa 0,0 l/m 0,0 km/h (0 Bft) SO 135 8,3 C 14,6 C
27.08.2012 22:21 14,5 C 66 % 1020,8 hPa 0,0 l/m 2,2 km/h (1 Bft) SO 135 8,2 C 14,5 C
27.08.2012 22:26 14,4 C 66 % 1020,9 hPa 0,0 l/m 0,0 km/h (0 Bft) SO 135 8,1 C 14,4 C
27.08.2012 22:31 14,4 C 66 % 1020,7 hPa 0,0 l/m 0,0 km/h (0 Bft) SO 135 8,1 C 14,4 C
27.08.2012 22:36 14,3 C 67 % 1020,7 hPa 0,0 l/m 1,8 km/h (1 Bft) SO 135 8,3 C 14,3 C
27.08.2012 22:41 14,2 C 67 % 1020,9 hPa 0,0 l/m 0,0 km/h (0 Bft) SO 135 8,2 C 14,2 C
27.08.2012 22:46 14,1 C 68 % 1020,8 hPa 0,0 l/m 2,2 km/h (1 Bft) SO 135 8,3 C 14,1 C
27.08.2012 22:51 13,9 C 68 % 1020,8 hPa 0,0 l/m 1,4 km/h (1 Bft) O-SO 112 8,1 C 13,9 C
27.08.2012 22:56 13,8 C 68 % 1020,7 hPa 0,0 l/m 1,1 km/h (1 Bft) SO 135 8,0 C 13,8 C
27.08.2012 23:01 13,6 C 69 % 1020,6 hPa 0,0 l/m 1,4 km/h (1 Bft) SO 135 8,0 C 13,6 C
27.08.2012 23:06 13,6 C 70 % 1020,7 hPa 0,0 l/m 0,0 km/h (0 Bft) SO 135 8,2 C 13,6 C
27.08.2012 23:11 13,5 C 70 % 1020,7 hPa 0,0 l/m 0,0 km/h (0 Bft) O-SO 112 8,1 C 13,5 C
27.08.2012 23:16 13,4 C 70 % 1020,7 hPa 0,0 l/m 1,8 km/h (1 Bft) O-SO 112 8,0 C 13,4 C
27.08.2012 23:21 13,3 C 70 % 1020,5 hPa 0,0 l/m 3,2 km/h (1 Bft) O-SO 112 7,9 C 13,3 C
27.08.2012 23:26 13,2 C 71 % 1020,4 hPa 0,0 l/m 0,0 km/h (0 Bft) O-SO 112 8,1 C 13,2 C
27.08.2012 23:31 13,1 C 71 % 1020,4 hPa 0,0 l/m 0,0 km/h (0 Bft) O-SO 112 8,0 C 13,1 C
27.08.2012 23:36 13,1 C 72 % 1020,5 hPa 0,0 l/m 0,0 km/h (0 Bft) O-SO 112 8,2 C 13,1 C
27.08.2012 23:41 13,0 C 72 % 1020,5 hPa 0,0 l/m 0,0 km/h (0 Bft) O-SO 112 8,1 C 13,0 C
27.08.2012 23:46 12,9 C 72 % 1020,5 hPa 0,0 l/m 0,0 km/h (0 Bft) O-SO 112 8,0 C 12,9 C
27.08.2012 23:51 12,9 C 72 % 1020,7 hPa 0,0 l/m 0,0 km/h (0 Bft) O-SO 112 8,0 C 12,9 C
27.08.2012 23:56 12,9 C 72 % 1020,7 hPa 0,0 l/m 0,0 km/h (0 Bft) O-SO 112 8,0 C 12,9 C
_ Min-Zeit 06:26 16:06 00:01 - 03:26 - - 23:21 06:26
Minimum _ 12,9 C 39 % 1014,2 hPa - 0,0 km/h (0 Bft) - - 7,9 C 12,9 C
_ Max-Zeit 17:01 04:51 13:26 00:01 12:11 - - 00:01 17:01
Maximum _ 23,3 C 89 % 1021,7 hPa 0,0 l/m 25,2 km/h
NW (4 Bft)
- - 12,8 C 23,3 C
Durchschnitt _ 17,2 C 66 % 1019,7 hPa #0,0 l/m 6,1 km/h (2 Bft) W-NW - 10,1 C 17,2 C
(c) by David Heller